createdAt,value
2019-03-29T00:01:09.503Z,16.27
2019-03-29T00:03:37.599Z,16.73
2019-03-29T00:06:05.747Z,15.93
2019-03-29T00:08:33.835Z,17.37
2019-03-29T00:11:01.924Z,17.83
2019-03-29T00:13:29.987Z,16.47
2019-03-29T00:15:58.242Z,15.90
2019-03-29T00:18:27.025Z,15.80
2019-03-29T00:20:55.239Z,15.37
2019-03-29T00:23:23.412Z,20.52
2019-03-29T00:25:51.400Z,19.93
2019-03-29T00:28:19.369Z,19.83
2019-03-29T00:30:47.988Z,17.03
2019-03-29T00:33:16.768Z,17.87
2019-03-29T00:35:45.479Z,17.07
2019-03-29T00:38:15.142Z,16.50
2019-03-29T00:40:43.239Z,15.17
2019-03-29T00:43:11.458Z,16.37
2019-03-29T00:45:39.532Z,16.67
2019-03-29T00:48:07.681Z,16.93
2019-03-29T00:50:35.721Z,16.43
2019-03-29T00:53:03.919Z,18.07
2019-03-29T00:55:32.021Z,16.90
2019-03-29T00:58:02.571Z,17.00
2019-03-29T01:00:31.638Z,16.77
2019-03-29T01:03:00.067Z,18.10
2019-03-29T01:05:28.167Z,17.70
2019-03-29T01:08:07.107Z,16.82
2019-03-29T01:10:26.332Z,17.20
2019-03-29T01:12:54.438Z,15.90
2019-03-29T01:15:22.666Z,17.27
2019-03-29T01:17:50.785Z,17.07
2019-03-29T01:20:19.023Z,17.57
2019-03-29T01:22:46.940Z,18.47
2019-03-29T01:25:14.955Z,18.13
2019-03-29T01:27:43.210Z,21.20
2019-03-29T01:30:12.347Z,19.83
2019-03-29T01:32:40.371Z,20.07
2019-03-29T01:35:09.323Z,21.93
2019-03-29T01:37:38.212Z,21.30
2019-03-29T01:40:06.806Z,21.10
2019-03-29T01:42:34.927Z,21.90
2019-03-29T01:45:03.385Z,21.40
2019-03-29T01:47:31.360Z,19.63
2019-03-29T01:50:02.746Z,18.07
2019-03-29T01:52:31.641Z,20.43
2019-03-29T01:54:59.844Z,20.87
2019-03-29T01:57:27.925Z,20.93
2019-03-29T01:59:56.041Z,21.90
2019-03-29T02:02:25.227Z,19.17
2019-03-29T02:04:55.033Z,19.73
2019-03-29T02:07:23.216Z,20.63
2019-03-29T02:09:51.271Z,20.33
2019-03-29T02:12:19.269Z,20.90
2019-03-29T02:14:47.595Z,19.00
2019-03-29T02:17:15.598Z,21.60
2019-03-29T02:19:43.658Z,18.90
2019-03-29T02:22:11.715Z,21.07
2019-03-29T02:24:39.814Z,21.17
2019-03-29T02:27:07.854Z,20.00
2019-03-29T02:29:38.682Z,18.20
2019-03-29T02:32:06.789Z,18.20
2019-03-29T02:34:35.237Z,19.37
2019-03-29T02:37:03.320Z,19.13
2019-03-29T02:39:33.605Z,17.87
2019-03-29T02:42:01.694Z,20.15
2019-03-29T02:44:31.059Z,18.57
2019-03-29T02:46:59.090Z,21.15
2019-03-29T02:49:27.208Z,19.77
2019-03-29T02:51:55.225Z,18.80
2019-03-29T02:54:23.197Z,18.67
2019-03-29T02:56:51.270Z,17.17
2019-03-29T02:59:19.199Z,18.67
2019-03-29T03:01:47.366Z,18.17
2019-03-29T03:04:15.459Z,18.87
2019-03-29T03:06:43.417Z,18.23
2019-03-29T03:09:13.960Z,14.90
2019-03-29T03:11:41.399Z,18.60
2019-03-29T03:14:09.469Z,19.00
2019-03-29T03:16:37.560Z,17.47
2019-03-29T03:19:05.730Z,18.87
2019-03-29T03:21:33.795Z,16.70
2019-03-29T03:24:02.483Z,16.50
2019-03-29T03:26:30.634Z,17.87
2019-03-29T03:28:58.762Z,16.70
2019-03-29T03:31:26.836Z,17.83
2019-03-29T03:33:54.810Z,19.62
2019-03-29T03:36:23.037Z,17.40
2019-03-29T03:38:51.144Z,18.53
2019-03-29T03:41:19.220Z,19.80
2019-03-29T03:43:47.402Z,15.60
2019-03-29T03:46:15.374Z,18.03
2019-03-29T03:48:43.458Z,17.60
2019-03-29T03:51:11.624Z,17.50
2019-03-29T03:53:39.895Z,16.20
2019-03-29T03:56:08.216Z,17.17
2019-03-29T03:58:40.180Z,18.07
2019-03-29T04:01:08.281Z,16.27
2019-03-29T04:03:36.558Z,18.23
2019-03-29T04:06:04.657Z,15.73
2019-03-29T04:08:32.773Z,17.33
2019-03-29T04:11:00.888Z,16.27
2019-03-29T04:13:28.985Z,16.43
2019-03-29T04:15:57.068Z,17.00
2019-03-29T04:18:25.206Z,17.73
2019-03-29T04:20:54.621Z,18.40
2019-03-29T04:23:22.757Z,17.70
2019-03-29T04:25:50.892Z,16.07
2019-03-29T04:28:18.920Z,17.60
2019-03-29T04:30:46.944Z,17.37
2019-03-29T04:33:15.021Z,17.63
2019-03-29T04:35:43.184Z,16.83
2019-03-29T04:38:11.272Z,17.63
2019-03-29T04:40:39.260Z,17.00
2019-03-29T04:43:07.561Z,17.37
2019-03-29T04:45:37.385Z,19.27
2019-03-29T04:48:05.560Z,17.20
2019-03-29T04:50:33.714Z,18.37
2019-03-29T04:53:01.839Z,17.93
2019-03-29T04:55:30.982Z,18.73
2019-03-29T04:57:58.946Z,19.40
2019-03-29T05:00:26.914Z,16.90
2019-03-29T05:02:56.575Z,18.93
2019-03-29T05:05:24.801Z,18.77
2019-03-29T05:07:52.878Z,18.47
2019-03-29T05:10:21.926Z,19.95
2019-03-29T05:12:50.299Z,16.40
2019-03-29T05:15:18.379Z,21.20
2019-03-29T05:17:46.573Z,16.70
2019-03-29T05:20:14.966Z,18.37
2019-03-29T05:22:43.332Z,17.00
2019-03-29T05:25:11.496Z,19.50
2019-03-29T05:27:39.548Z,18.00
2019-03-29T05:30:08.087Z,16.87
2019-03-29T05:32:36.913Z,19.03
2019-03-29T05:35:05.248Z,20.00
2019-03-29T05:37:33.499Z,16.97
2019-03-29T05:40:03.017Z,19.50
2019-03-29T05:42:31.799Z,18.10
2019-03-29T05:45:00.332Z,19.87
2019-03-29T05:47:29.903Z,17.17
2019-03-29T05:50:00.803Z,18.80
2019-03-29T05:52:30.567Z,18.17
2019-03-29T05:55:01.083Z,17.60
2019-03-29T05:57:32.192Z,17.27
2019-03-29T06:00:00.382Z,14.43
2019-03-29T06:02:28.506Z,18.50
2019-03-29T06:04:56.933Z,17.77
2019-03-29T06:07:25.009Z,18.98
2019-03-29T06:09:53.188Z,19.30
2019-03-29T06:12:21.574Z,24.47
2019-03-29T06:14:49.664Z,18.37
2019-03-29T06:17:19.228Z,19.80
2019-03-29T06:19:47.373Z,23.27
2019-03-29T06:22:15.314Z,20.87
2019-03-29T06:24:43.470Z,20.67
2019-03-29T06:27:11.471Z,21.20
2019-03-29T06:29:39.501Z,32.23
2019-03-29T06:32:07.766Z,34.67
2019-03-29T06:34:35.959Z,25.13
2019-03-29T06:37:04.318Z,22.80
2019-03-29T06:39:32.659Z,24.70
2019-03-29T06:42:00.821Z,23.60
2019-03-29T06:44:28.860Z,24.63
2019-03-29T06:46:57.067Z,23.93
2019-03-29T06:49:25.239Z,24.47
2019-03-29T06:51:53.226Z,23.17
2019-03-29T06:54:21.237Z,24.90
2019-03-29T06:56:49.232Z,24.23
2019-03-29T06:59:17.178Z,24.40
2019-03-29T07:01:46.520Z,25.20
2019-03-29T07:04:14.676Z,26.27
2019-03-29T07:06:42.953Z,26.47
2019-03-29T07:09:11.023Z,29.92
2019-03-29T07:11:39.811Z,28.80
2019-03-29T07:14:08.130Z,30.85
2019-03-29T07:16:36.316Z,26.73
2019-03-29T07:19:05.093Z,26.23
2019-03-29T07:21:34.520Z,38.50
2019-03-29T07:24:02.895Z,26.77
2019-03-29T07:26:30.910Z,24.30
2019-03-29T07:29:00.860Z,24.70
2019-03-29T07:31:28.995Z,23.80
2019-03-29T07:33:57.065Z,24.63
2019-03-29T07:36:25.011Z,24.90
2019-03-29T07:38:53.023Z,24.97
2019-03-29T07:41:31.695Z,25.63
2019-03-29T07:43:51.051Z,26.10
2019-03-29T07:46:19.218Z,27.30
2019-03-29T07:48:47.454Z,27.93
2019-03-29T07:51:15.582Z,25.23
2019-03-29T07:53:45.056Z,26.20
2019-03-29T07:56:13.429Z,26.00
2019-03-29T07:58:41.677Z,28.13
2019-03-29T08:01:09.816Z,26.63
2019-03-29T08:03:37.959Z,27.10
2019-03-29T08:06:06.135Z,28.27
2019-03-29T08:08:34.529Z,30.75
2019-03-29T08:11:03.099Z,28.60
2019-03-29T08:13:31.700Z,27.10
2019-03-29T08:16:00.489Z,25.27
2019-03-29T08:18:28.682Z,28.80
2019-03-29T08:21:02.711Z,27.43
2019-03-29T08:23:31.020Z,30.30
2019-03-29T08:26:03.166Z,26.67
2019-03-29T08:28:31.337Z,25.70
2019-03-29T08:30:59.434Z,26.70
2019-03-29T08:33:27.593Z,26.27
2019-03-29T08:35:55.631Z,27.07
2019-03-29T08:38:23.714Z,24.83
2019-03-29T08:40:51.939Z,26.63
2019-03-29T08:43:20.043Z,24.97
2019-03-29T08:45:48.907Z,25.40
2019-03-29T08:48:16.968Z,25.20
2019-03-29T08:50:45.496Z,26.63
2019-03-29T08:53:13.800Z,25.40
2019-03-29T08:55:46.064Z,25.57
2019-03-29T08:58:20.146Z,25.30
2019-03-29T09:00:48.069Z,24.80
2019-03-29T09:03:16.709Z,24.63
2019-03-29T09:05:45.339Z,23.57
2019-03-29T09:08:13.887Z,24.50
2019-03-29T09:10:41.858Z,23.00
2019-03-29T09:13:09.808Z,24.60
2019-03-29T09:15:37.807Z,26.53
2019-03-29T09:18:06.090Z,26.43
2019-03-29T09:20:34.814Z,25.80
2019-03-29T09:23:03.088Z,24.60
2019-03-29T09:25:31.232Z,24.43
2019-03-29T09:27:59.313Z,24.20
2019-03-29T09:30:27.357Z,28.53
2019-03-29T09:32:56.225Z,26.50
2019-03-29T09:35:24.356Z,28.30
2019-03-29T09:37:52.711Z,27.43
2019-03-29T09:40:22.694Z,25.50
2019-03-29T09:43:06.882Z,26.23
2019-03-29T09:45:23.845Z,30.70
2019-03-29T09:47:55.864Z,27.87
2019-03-29T09:50:24.049Z,30.93
2019-03-29T09:52:52.292Z,27.63
2019-03-29T09:55:20.344Z,26.07
2019-03-29T10:00:36.182Z,25.03
2019-03-29T10:03:04.259Z,26.77
2019-03-29T10:05:32.269Z,25.50
2019-03-29T10:08:01.020Z,27.10
2019-03-29T10:10:29.186Z,26.27
2019-03-29T10:12:58.472Z,26.73
2019-03-29T10:15:26.476Z,26.90
2019-03-29T10:17:54.509Z,26.53
2019-03-29T10:20:24.529Z,23.27
2019-03-29T10:22:52.570Z,24.97
2019-03-29T10:25:20.811Z,29.75
2019-03-29T10:27:50.698Z,26.85
2019-03-29T10:30:50.367Z,22.37
2019-03-29T10:33:18.591Z,26.27
2019-03-29T10:35:52.003Z,26.67
2019-03-29T10:38:19.804Z,25.67
2019-03-29T10:40:47.951Z,25.83
2019-03-29T10:43:16.426Z,23.97
2019-03-29T10:45:44.999Z,24.77
2019-03-29T10:48:13.208Z,24.83
2019-03-29T10:50:41.740Z,24.57
2019-03-29T10:53:10.009Z,22.83
2019-03-29T10:55:38.135Z,23.10
2019-03-29T10:58:09.520Z,25.57
2019-03-29T11:00:38.268Z,27.10
2019-03-29T11:03:06.930Z,26.20
2019-03-29T11:05:36.439Z,24.40
2019-03-29T11:08:12.413Z,25.43
2019-03-29T11:10:41.737Z,22.93
2019-03-29T11:13:14.089Z,25.77
2019-03-29T11:15:39.806Z,26.20
2019-03-29T11:18:08.098Z,24.37
2019-03-29T11:20:36.248Z,24.10
2019-03-29T11:23:04.464Z,24.53
2019-03-29T11:25:32.649Z,24.60
2019-03-29T11:28:03.273Z,23.80
2019-03-29T11:30:42.098Z,24.93
2019-03-29T11:33:04.697Z,25.40
2019-03-29T11:35:32.744Z,28.83
2019-03-29T11:38:00.825Z,27.47
2019-03-29T11:40:28.786Z,26.13
2019-03-29T11:42:57.642Z,26.50
2019-03-29T11:45:25.637Z,25.80
2019-03-29T11:48:07.460Z,24.63
2019-03-29T11:50:23.845Z,26.63
2019-03-29T11:52:52.006Z,26.07
2019-03-29T11:55:20.499Z,25.53
2019-03-29T11:57:48.677Z,24.93
2019-03-29T12:00:22.493Z,25.73
2019-03-29T12:02:50.715Z,25.10
2019-03-29T12:05:21.259Z,26.00
2019-03-29T12:07:49.515Z,24.50
2019-03-29T12:10:17.612Z,26.80
2019-03-29T12:12:45.806Z,27.80
2019-03-29T12:15:14.428Z,26.50
2019-03-29T12:17:42.868Z,24.57
2019-03-29T12:20:11.009Z,26.43
2019-03-29T12:22:39.168Z,25.53
2019-03-29T12:25:07.214Z,26.07
2019-03-29T12:27:35.283Z,26.87
2019-03-29T12:30:03.988Z,26.43
2019-03-29T12:32:32.212Z,27.33
2019-03-29T12:35:00.361Z,25.00
2019-03-29T12:37:28.524Z,26.03
2019-03-29T12:39:56.635Z,24.73
2019-03-29T12:42:25.647Z,30.43
2019-03-29T12:44:53.827Z,27.10
2019-03-29T12:47:21.927Z,27.60
2019-03-29T12:49:50.190Z,27.63
2019-03-29T12:52:18.920Z,27.70
2019-03-29T12:54:47.920Z,25.10
2019-03-29T12:57:17.480Z,27.90
2019-03-29T12:59:45.662Z,27.00
2019-03-29T13:02:15.763Z,26.83
2019-03-29T13:04:55.237Z,26.60
2019-03-29T13:07:24.987Z,25.83
2019-03-29T13:09:53.022Z,26.33
2019-03-29T13:12:21.294Z,26.20
2019-03-29T13:14:49.281Z,27.10
2019-03-29T13:17:17.513Z,25.33
2019-03-29T13:19:45.582Z,26.30
2019-03-29T13:22:13.989Z,25.40
2019-03-29T13:24:43.494Z,26.93
2019-03-29T13:27:11.627Z,26.53
2019-03-29T13:32:20.126Z,28.10
2019-03-29T13:34:53.481Z,27.70
2019-03-29T13:37:21.552Z,25.80
2019-03-29T13:39:49.678Z,26.17
2019-03-29T13:42:22.138Z,26.40
2019-03-29T13:44:52.302Z,26.20
2019-03-29T13:47:20.833Z,28.23
2019-03-29T13:49:49.123Z,27.47
2019-03-29T13:52:17.247Z,29.25
2019-03-29T13:54:45.699Z,28.20
2019-03-29T13:57:13.990Z,28.27
2019-03-29T13:59:42.025Z,26.40
2019-03-29T14:02:11.959Z,26.60
2019-03-29T14:04:39.990Z,27.37
2019-03-29T14:07:08.302Z,28.70
2019-03-29T14:09:36.406Z,27.60
2019-03-29T14:12:04.562Z,28.50
2019-03-29T14:14:38.370Z,26.17
2019-03-29T14:17:02.646Z,27.00
2019-03-29T14:19:30.700Z,28.10
2019-03-29T14:21:59.940Z,27.83
2019-03-29T14:24:28.181Z,27.53
2019-03-29T14:26:57.505Z,27.13
2019-03-29T14:29:25.789Z,27.50
2019-03-29T14:31:54.473Z,26.30
2019-03-29T14:34:22.402Z,26.60
2019-03-29T14:36:50.467Z,27.63
2019-03-29T14:39:18.986Z,26.90
2019-03-29T14:41:47.312Z,27.93
2019-03-29T14:44:15.468Z,27.23
2019-03-29T14:46:43.551Z,28.23
2019-03-29T14:49:11.903Z,26.23
2019-03-29T14:51:39.978Z,29.05
2019-03-29T14:54:08.174Z,27.97
2019-03-29T14:56:36.540Z,28.13
2019-03-29T14:59:04.618Z,29.77
2019-03-29T15:01:33.998Z,30.40
2019-03-29T15:04:02.049Z,27.90
2019-03-29T15:06:30.205Z,28.93
2019-03-29T15:09:00.385Z,29.20
2019-03-29T15:11:28.618Z,27.00
2019-03-29T15:13:56.876Z,28.50
2019-03-29T15:16:24.982Z,29.60
2019-03-29T15:18:53.385Z,29.00
2019-03-29T15:21:22.273Z,29.13
2019-03-29T15:23:50.530Z,31.45
2019-03-29T15:26:19.010Z,27.27
2019-03-29T15:28:47.202Z,30.82
2019-03-29T15:31:15.233Z,27.70
2019-03-29T15:33:43.384Z,28.50
2019-03-29T15:36:11.501Z,28.00
2019-03-29T15:38:39.399Z,28.40
2019-03-29T15:41:07.613Z,29.50
2019-03-29T15:43:35.658Z,27.00
2019-03-29T15:46:03.822Z,29.60
2019-03-29T15:48:32.135Z,27.77
2019-03-29T15:51:00.512Z,27.70
2019-03-29T15:53:28.800Z,28.13
2019-03-29T15:55:57.050Z,30.68
2019-03-29T15:58:25.186Z,30.43
2019-03-29T16:00:53.491Z,33.92
2019-03-29T16:03:21.617Z,29.13
2019-03-29T16:05:49.662Z,30.40
2019-03-29T16:08:21.906Z,26.60
2019-03-29T16:10:49.994Z,29.07
2019-03-29T16:13:19.778Z,28.57
2019-03-29T16:15:47.795Z,27.00
2019-03-29T16:18:15.913Z,28.03
2019-03-29T16:20:43.964Z,27.53
2019-03-29T16:23:12.161Z,28.63
2019-03-29T16:25:40.262Z,27.13
2019-03-29T16:28:08.394Z,27.10
2019-03-29T16:30:36.602Z,28.02
2019-03-29T16:33:04.631Z,28.40
2019-03-29T16:35:33.102Z,27.53
2019-03-29T16:38:01.320Z,30.87
2019-03-29T16:40:31.056Z,30.13
2019-03-29T16:43:00.298Z,29.87
2019-03-29T16:45:28.285Z,27.87
2019-03-29T16:47:56.501Z,26.53
2019-03-29T16:50:24.573Z,29.10
2019-03-29T16:52:52.694Z,28.13
2019-03-29T16:55:21.952Z,29.43
2019-03-29T16:57:50.280Z,28.60
2019-03-29T17:00:19.045Z,28.50
2019-03-29T17:02:47.541Z,31.07
2019-03-29T17:05:16.152Z,30.63
2019-03-29T17:07:44.433Z,30.90
2019-03-29T17:10:12.794Z,28.87
2019-03-29T17:12:41.067Z,29.97
2019-03-29T17:15:10.731Z,29.13
2019-03-29T17:17:38.729Z,28.60
2019-03-29T17:20:07.873Z,28.50
2019-03-29T17:22:36.238Z,27.77
2019-03-29T17:25:05.118Z,27.70
2019-03-29T17:27:33.527Z,28.20
2019-03-29T17:30:01.821Z,29.85
2019-03-29T17:32:31.661Z,29.97
2019-03-29T17:35:00.778Z,31.93
2019-03-29T17:37:29.065Z,29.50
2019-03-29T17:39:57.348Z,31.13
2019-03-29T17:42:26.123Z,30.03
2019-03-29T17:44:54.268Z,29.10
2019-03-29T17:47:22.637Z,29.03
2019-03-29T17:49:51.065Z,31.03
2019-03-29T17:52:19.265Z,26.53
2019-03-29T17:54:47.522Z,27.47
2019-03-29T17:57:16.252Z,26.90
2019-03-29T17:59:45.406Z,27.90
2019-03-29T18:02:13.891Z,26.40
2019-03-29T18:04:42.261Z,34.03
2019-03-29T18:07:10.466Z,31.43
2019-03-29T18:09:38.537Z,38.27
2019-03-29T18:12:06.629Z,38.77
2019-03-29T18:14:34.881Z,28.80
2019-03-29T18:17:02.957Z,32.47
2019-03-29T18:19:31.238Z,35.13
2019-03-29T18:22:00.602Z,32.40
2019-03-29T18:24:28.999Z,33.13
2019-03-29T18:26:57.816Z,33.27
2019-03-29T18:29:26.057Z,36.87
2019-03-29T18:31:54.241Z,32.67
2019-03-29T18:34:22.954Z,30.10
2019-03-29T18:36:53.118Z,31.07
2019-03-29T18:39:22.076Z,33.60
2019-03-29T18:41:50.646Z,36.55
2019-03-29T18:44:18.986Z,37.33
2019-03-29T18:46:47.209Z,34.87
2019-03-29T18:49:15.615Z,36.50
2019-03-29T18:51:43.617Z,33.77
2019-03-29T18:54:12.643Z,36.40
2019-03-29T18:56:40.694Z,34.27
2019-03-29T18:59:09.297Z,36.87
2019-03-29T19:01:37.523Z,38.20
2019-03-29T19:04:05.542Z,34.10
2019-03-29T19:06:33.679Z,34.67
2019-03-29T19:09:01.746Z,31.33
2019-03-29T19:11:31.774Z,33.87
2019-03-29T19:13:59.945Z,40.50
2019-03-29T19:16:28.086Z,38.50
2019-03-29T19:19:09.914Z,36.93
2019-03-29T19:21:29.839Z,35.30
2019-03-29T19:23:58.012Z,34.83
2019-03-29T19:26:27.115Z,32.80
2019-03-29T19:28:55.124Z,33.07
2019-03-29T19:31:23.376Z,38.17
2019-03-29T19:33:51.573Z,34.93
2019-03-29T19:36:19.998Z,29.93
2019-03-29T19:38:48.523Z,36.73
2019-03-29T19:41:17.157Z,30.03
2019-03-29T19:43:45.341Z,34.10
2019-03-29T19:46:13.614Z,34.13
2019-03-29T19:48:41.915Z,32.57
2019-03-29T19:51:10.962Z,39.05
2019-03-29T19:53:39.050Z,34.10
2019-03-29T19:56:07.058Z,34.00
2019-03-29T19:58:35.148Z,37.20
2019-03-29T20:01:03.843Z,36.67
2019-03-29T20:03:32.114Z,32.60
2019-03-29T20:06:00.316Z,38.30
2019-03-29T20:08:28.412Z,34.17
2019-03-29T20:10:56.490Z,35.30
2019-03-29T20:13:24.625Z,35.57
2019-03-29T20:18:34.886Z,34.43
2019-03-29T20:21:03.181Z,30.30
2019-03-29T20:23:31.533Z,35.40
2019-03-29T20:25:59.731Z,33.63
2019-03-29T20:28:27.843Z,38.87
2019-03-29T20:30:55.983Z,39.50
2019-03-29T20:33:24.095Z,42.33
2019-03-29T20:35:52.171Z,40.50
2019-03-29T20:38:20.253Z,34.13
2019-03-29T20:41:16.991Z,37.20
2019-03-29T20:43:45.215Z,37.73
2019-03-29T20:46:13.517Z,39.70
2019-03-29T20:48:41.623Z,40.77
2019-03-29T20:51:09.999Z,39.20
2019-03-29T20:53:38.089Z,38.20
2019-03-29T20:56:06.787Z,38.73
2019-03-29T20:58:34.890Z,40.07
2019-03-29T21:01:03.093Z,39.77
2019-03-29T21:03:31.359Z,45.07
2019-03-29T21:06:01.072Z,44.13
2019-03-29T21:08:29.391Z,43.50
2019-03-29T21:10:59.229Z,48.83
2019-03-29T21:13:28.589Z,46.40
2019-03-29T21:15:56.931Z,42.97
2019-03-29T21:18:25.094Z,39.50
2019-03-29T21:20:53.599Z,40.87
2019-03-29T21:23:21.853Z,47.40
2019-03-29T21:25:49.978Z,45.20
2019-03-29T21:28:18.236Z,45.83
2019-03-29T21:30:46.509Z,41.00
2019-03-29T21:33:14.690Z,43.63
2019-03-29T21:35:42.814Z,41.37
2019-03-29T21:38:11.147Z,45.27
2019-03-29T21:40:39.262Z,46.90
2019-03-29T21:43:07.466Z,41.17
2019-03-29T21:45:36.078Z,40.60
2019-03-29T21:48:25.524Z,44.37
2019-03-29T21:50:34.498Z,42.30
2019-03-29T21:53:02.671Z,37.37
2019-03-29T21:55:30.932Z,49.45
2019-03-29T21:57:59.094Z,43.17
2019-03-29T22:00:27.297Z,40.37
2019-03-29T22:02:55.451Z,44.23
2019-03-29T22:05:23.753Z,44.97
2019-03-29T22:07:51.970Z,43.30
2019-03-29T22:10:20.157Z,39.17
2019-03-29T22:12:50.236Z,41.67
2019-03-29T22:15:18.412Z,45.93
2019-03-29T22:17:47.216Z,48.20
2019-03-29T22:20:15.885Z,45.33
2019-03-29T22:22:43.988Z,41.17
2019-03-29T22:25:12.105Z,42.03
2019-03-29T22:27:40.345Z,45.60
2019-03-29T22:30:09.581Z,46.87
2019-03-29T22:32:39.654Z,43.03
2019-03-29T22:35:08.048Z,46.47
2019-03-29T22:37:36.680Z,45.43
2019-03-29T22:40:06.433Z,47.00
2019-03-29T22:42:34.656Z,55.70
2019-03-29T22:45:03.283Z,47.93
2019-03-29T22:47:31.613Z,46.10
2019-03-29T22:50:00.036Z,40.70
2019-03-29T22:52:28.379Z,39.23
2019-03-29T22:54:56.455Z,39.03
2019-03-29T22:57:24.520Z,45.37
2019-03-29T22:59:52.924Z,42.27
2019-03-29T23:02:21.266Z,44.20
2019-03-29T23:04:49.506Z,41.00
2019-03-29T23:07:17.634Z,43.00
2019-03-29T23:09:45.771Z,41.80
2019-03-29T23:12:13.910Z,39.60
2019-03-29T23:14:42.032Z,43.87
2019-03-29T23:17:11.180Z,43.33
2019-03-29T23:19:40.025Z,42.50
2019-03-29T23:22:08.444Z,42.40
2019-03-29T23:24:37.625Z,37.03
2019-03-29T23:27:05.706Z,40.93
2019-03-29T23:29:34.099Z,39.43
2019-03-29T23:32:02.273Z,40.27
2019-03-29T23:34:32.498Z,40.33
2019-03-29T23:37:01.269Z,40.20
2019-03-29T23:39:30.611Z,42.50
2019-03-29T23:41:59.027Z,36.63
2019-03-29T23:44:27.234Z,39.87
2019-03-29T23:46:56.299Z,40.10
2019-03-29T23:49:24.337Z,38.60
2019-03-29T23:51:52.431Z,38.03
2019-03-29T23:54:20.643Z,39.37
2019-03-29T23:56:48.693Z,38.20
2019-03-29T23:59:16.892Z,41.37
